Elco, Pennsylvania
Current Conditions -  °F | °C
As of 11:53 AM on Thursday 30 Oct 2014 (Local Time) from KAGC Reporting Station
Overcast Overcast  
Wind Chill:   Ceiling: 2900
Heat Index:   Visibility: 10mi
Dew Point:   Wind: 0mph
Humidity: 63%   Direction: NA
Pressure: 30.09"   Gusts: NA
Location:  40.08°N, 79.87°W
Report Text: KAGC 301553Z 00000KT 10SM SCT022 BKN029 OVC050 09/02 A3009 RMK AO2 SLP199 T00890022
Loading
Personal Weather Stations






























Interactive Weather Map
Tropical Storm Tracking
New forecast layout! Learn more

10-Day Weather Forecast

Advertisements
Track Severe Weather on mobile